sensor_id;sensor_type;location;lat;lon;timestamp;temperature;humidity
5930;DHT22;2990;48.746;9.236;2023-01-04T00:01:04;3.10;99.90
5930;DHT22;2990;48.746;9.236;2023-01-04T00:03:31;3.10;99.90
5930;DHT22;2990;48.746;9.236;2023-01-04T00:05:58;3.10;99.90
5930;DHT22;2990;48.746;9.236;2023-01-04T00:08:24;3.00;99.90
5930;DHT22;2990;48.746;9.236;2023-01-04T00:10:49;3.00;99.90
5930;DHT22;2990;48.746;9.236;2023-01-04T00:13:15;3.10;99.90
5930;DHT22;2990;48.746;9.236;2023-01-04T00:15:40;3.10;99.90
5930;DHT22;2990;48.746;9.236;2023-01-04T00:18:06;3.10;99.90
5930;DHT22;2990;48.746;9.236;2023-01-04T00:20:42;3.10;99.90
5930;DHT22;2990;48.746;9.236;2023-01-04T00:23:08;3.10;99.90
5930;DHT22;2990;48.746;9.236;2023-01-04T00:25:40;3.10;99.90
5930;DHT22;2990;48.746;9.236;2023-01-04T00:28:12;3.00;99.90
5930;DHT22;2990;48.746;9.236;2023-01-04T00:33:44;3.10;99.90
5930;DHT22;2990;48.746;9.236;2023-01-04T00:36:12;3.10;99.90
5930;DHT22;2990;48.746;9.236;2023-01-04T00:38:41;3.00;99.90
5930;DHT22;2990;48.746;9.236;2023-01-04T00:41:35;3.00;99.90
5930;DHT22;2990;48.746;9.236;2023-01-04T00:44:12;2.90;99.90
5930;DHT22;2990;48.746;9.236;2023-01-04T00:46:41;2.80;99.90
5930;DHT22;2990;48.746;9.236;2023-01-04T00:49:08;2.80;99.90
5930;DHT22;2990;48.746;9.236;2023-01-04T00:51:35;2.70;99.90
5930;DHT22;2990;48.746;9.236;2023-01-04T00:54:02;2.60;99.90
5930;DHT22;2990;48.746;9.236;2023-01-04T00:56:29;2.60;99.90
5930;DHT22;2990;48.746;9.236;2023-01-04T00:58:56;2.60;99.90
5930;DHT22;2990;48.746;9.236;2023-01-04T01:01:26;2.50;99.90
5930;DHT22;2990;48.746;9.236;2023-01-04T01:03:56;2.50;99.90
5930;DHT22;2990;48.746;9.236;2023-01-04T01:06:23;2.50;99.90
5930;DHT22;2990;48.746;9.236;2023-01-04T01:08:52;2.50;99.90
5930;DHT22;2990;48.746;9.236;2023-01-04T01:11:18;2.40;99.90
5930;DHT22;2990;48.746;9.236;2023-01-04T01:13:44;2.40;99.90
5930;DHT22;2990;48.746;9.236;2023-01-04T01:16:13;2.40;99.90
5930;DHT22;2990;48.746;9.236;2023-01-04T01:18:41;2.40;99.90
5930;DHT22;2990;48.746;9.236;2023-01-04T01:21:16;2.50;99.90
5930;DHT22;2990;48.746;9.236;2023-01-04T01:23:42;2.50;99.90
5930;DHT22;2990;48.746;9.236;2023-01-04T01:26:13;2.60;99.90
5930;DHT22;2990;48.746;9.236;2023-01-04T01:28:39;2.60;99.90
5930;DHT22;2990;48.746;9.236;2023-01-04T01:31:13;2.70;99.90
5930;DHT22;2990;48.746;9.236;2023-01-04T01:36:41;2.80;99.90
5930;DHT22;2990;48.746;9.236;2023-01-04T01:39:12;2.80;99.90
5930;DHT22;2990;48.746;9.236;2023-01-04T01:41:48;2.90;99.90
5930;DHT22;2990;48.746;9.236;2023-01-04T01:47:20;2.90;99.90
5930;DHT22;2990;48.746;9.236;2023-01-04T01:49:50;2.90;99.90
5930;DHT22;2990;48.746;9.236;2023-01-04T01:52:34;2.90;99.90
5930;DHT22;2990;48.746;9.236;2023-01-04T01:55:04;2.90;99.90
5930;DHT22;2990;48.746;9.236;2023-01-04T01:57:34;2.80;99.90
5930;DHT22;2990;48.746;9.236;2023-01-04T02:00:07;2.80;99.90
5930;DHT22;2990;48.746;9.236;2023-01-04T02:02:34;2.80;99.90
5930;DHT22;2990;48.746;9.236;2023-01-04T02:05:03;2.80;99.90
5930;DHT22;2990;48.746;9.236;2023-01-04T02:07:28;2.80;99.90
5930;DHT22;2990;48.746;9.236;2023-01-04T02:09:55;2.80;99.90
5930;DHT22;2990;48.746;9.236;2023-01-04T02:12:24;2.70;99.90
5930;DHT22;2990;48.746;9.236;2023-01-04T02:14:50;2.70;99.90
5930;DHT22;2990;48.746;9.236;2023-01-04T02:17:43;2.70;99.90
5930;DHT22;2990;48.746;9.236;2023-01-04T02:28:50;2.70;99.90
5930;DHT22;2990;48.746;9.236;2023-01-04T02:31:41;2.70;99.90
5930;DHT22;2990;48.746;9.236;2023-01-04T02:34:42;2.70;99.90
5930;DHT22;2990;48.746;9.236;2023-01-04T02:37:39;2.70;99.90
5930;DHT22;2990;48.746;9.236;2023-01-04T02:43:13;2.70;99.90
5930;DHT22;2990;48.746;9.236;2023-01-04T02:46:04;2.70;99.90
5930;DHT22;2990;48.746;9.236;2023-01-04T02:48:39;2.70;99.90
5930;DHT22;2990;48.746;9.236;2023-01-04T02:51:28;2.70;99.90
5930;DHT22;2990;48.746;9.236;2023-01-04T02:53:56;2.80;99.90
5930;DHT22;2990;48.746;9.236;2023-01-04T02:56:32;2.80;99.90
5930;DHT22;2990;48.746;9.236;2023-01-04T02:59:22;2.80;99.90
5930;DHT22;2990;48.746;9.236;2023-01-04T03:02:11;2.80;99.90
5930;DHT22;2990;48.746;9.236;2023-01-04T03:05:05;2.90;99.90
5930;DHT22;2990;48.746;9.236;2023-01-04T03:08:00;2.90;99.90
5930;DHT22;2990;48.746;9.236;2023-01-04T03:10:40;2.90;99.90
5930;DHT22;2990;48.746;9.236;2023-01-04T03:13:28;2.90;99.90
5930;DHT22;2990;48.746;9.236;2023-01-04T03:16:06;2.90;99.90
5930;DHT22;2990;48.746;9.236;2023-01-04T03:18:37;2.90;99.90
5930;DHT22;2990;48.746;9.236;2023-01-04T03:21:07;2.90;99.90
5930;DHT22;2990;48.746;9.236;2023-01-04T03:23:35;2.90;99.90
5930;DHT22;2990;48.746;9.236;2023-01-04T03:26:26;2.90;99.90
5930;DHT22;2990;48.746;9.236;2023-01-04T03:29:16;2.90;99.90
5930;DHT22;2990;48.746;9.236;2023-01-04T03:32:17;2.80;99.90
5930;DHT22;2990;48.746;9.236;2023-01-04T03:35:05;2.80;99.90
5930;DHT22;2990;48.746;9.236;2023-01-04T03:37:59;2.80;99.90
5930;DHT22;2990;48.746;9.236;2023-01-04T03:41:01;2.80;99.90
5930;DHT22;2990;48.746;9.236;2023-01-04T03:43:53;2.80;99.90
5930;DHT22;2990;48.746;9.236;2023-01-04T03:46:48;2.80;99.90
5930;DHT22;2990;48.746;9.236;2023-01-04T03:49:49;2.90;99.90
5930;DHT22;2990;48.746;9.236;2023-01-04T03:52:22;2.90;99.90
5930;DHT22;2990;48.746;9.236;2023-01-04T03:54:51;2.90;99.90
5930;DHT22;2990;48.746;9.236;2023-01-04T03:57:18;2.90;99.90
5930;DHT22;2990;48.746;9.236;2023-01-04T03:59:48;3.10;99.90
5930;DHT22;2990;48.746;9.236;2023-01-04T04:02:14;3.00;99.90
5930;DHT22;2990;48.746;9.236;2023-01-04T04:04:44;3.00;91.70
5930;DHT22;2990;48.746;9.236;2023-01-04T04:07:28;3.10;78.10
5930;DHT22;2990;48.746;9.236;2023-01-04T04:10:13;3.10;62.90
5930;DHT22;2990;48.746;9.236;2023-01-04T04:12:39;3.10;44.80
5930;DHT22;2990;48.746;9.236;2023-01-04T04:15:05;3.10;33.40
5930;DHT22;2990;48.746;9.236;2023-01-04T04:17:30;3.10;29.70
5930;DHT22;2990;48.746;9.236;2023-01-04T04:19:56;3.10;29.20
5930;DHT22;2990;48.746;9.236;2023-01-04T04:22:21;3.20;22.20
5930;DHT22;2990;48.746;9.236;2023-01-04T04:24:47;3.30;11.80
5930;DHT22;2990;48.746;9.236;2023-01-04T04:27:12;3.30;2.30
5930;DHT22;2990;48.746;9.236;2023-01-04T04:29:38;3.40;1.00
5930;DHT22;2990;48.746;9.236;2023-01-04T04:32:04;3.50;1.00
5930;DHT22;2990;48.746;9.236;2023-01-04T04:34:29;3.60;1.00
5930;DHT22;2990;48.746;9.236;2023-01-04T04:36:55;3.70;1.00
5930;DHT22;2990;48.746;9.236;2023-01-04T04:39:20;3.70;1.00
5930;DHT22;2990;48.746;9.236;2023-01-04T04:41:46;3.80;1.00
5930;DHT22;2990;48.746;9.236;2023-01-04T04:44:15;3.90;1.00
5930;DHT22;2990;48.746;9.236;2023-01-04T04:46:41;3.90;1.00
5930;DHT22;2990;48.746;9.236;2023-01-04T04:49:08;3.90;1.00
5930;DHT22;2990;48.746;9.236;2023-01-04T04:51:34;3.90;1.00
5930;DHT22;2990;48.746;9.236;2023-01-04T04:54:00;3.90;1.00
5930;DHT22;2990;48.746;9.236;2023-01-04T04:56:26;3.90;1.00
5930;DHT22;2990;48.746;9.236;2023-01-04T04:58:57;3.90;1.00
5930;DHT22;2990;48.746;9.236;2023-01-04T05:01:23;4.00;1.00
5930;DHT22;2990;48.746;9.236;2023-01-04T05:03:54;4.00;1.00
5930;DHT22;2990;48.746;9.236;2023-01-04T05:06:25;4.00;1.00
5930;DHT22;2990;48.746;9.236;2023-01-04T05:08:53;4.00;1.00
5930;DHT22;2990;48.746;9.236;2023-01-04T05:11:19;4.00;1.00
5930;DHT22;2990;48.746;9.236;2023-01-04T05:14:05;4.10;1.00
5930;DHT22;2990;48.746;9.236;2023-01-04T05:16:31;4.10;1.00
5930;DHT22;2990;48.746;9.236;2023-01-04T05:19:00;4.00;1.00
5930;DHT22;2990;48.746;9.236;2023-01-04T05:21:31;4.10;1.00
5930;DHT22;2990;48.746;9.236;2023-01-04T05:23:56;4.10;1.00
5930;DHT22;2990;48.746;9.236;2023-01-04T05:26:22;4.00;1.00
5930;DHT22;2990;48.746;9.236;2023-01-04T05:28:47;4.10;1.00
5930;DHT22;2990;48.746;9.236;2023-01-04T05:31:13;4.10;1.00
5930;DHT22;2990;48.746;9.236;2023-01-04T05:33:39;4.20;1.00
5930;DHT22;2990;48.746;9.236;2023-01-04T05:36:07;4.20;1.00
5930;DHT22;2990;48.746;9.236;2023-01-04T05:38:33;4.20;1.00
5930;DHT22;2990;48.746;9.236;2023-01-04T05:41:01;4.30;1.00
5930;DHT22;2990;48.746;9.236;2023-01-04T05:43:27;4.30;1.00
5930;DHT22;2990;48.746;9.236;2023-01-04T05:45:55;4.40;1.00
5930;DHT22;2990;48.746;9.236;2023-01-04T05:48:23;4.40;1.00
5930;DHT22;2990;48.746;9.236;2023-01-04T05:50:53;4.50;1.00
5930;DHT22;2990;48.746;9.236;2023-01-04T05:53:22;4.50;1.00
5930;DHT22;2990;48.746;9.236;2023-01-04T05:55:50;4.50;1.00
5930;DHT22;2990;48.746;9.236;2023-01-04T05:58:16;4.60;1.00
5930;DHT22;2990;48.746;9.236;2023-01-04T06:00:42;4.50;1.00
5930;DHT22;2990;48.746;9.236;2023-01-04T06:03:10;4.50;1.00
5930;DHT22;2990;48.746;9.236;2023-01-04T06:05:35;4.50;1.00
5930;DHT22;2990;48.746;9.236;2023-01-04T06:08:03;4.50;1.00
5930;DHT22;2990;48.746;9.236;2023-01-04T06:10:36;4.50;1.00
5930;DHT22;2990;48.746;9.236;2023-01-04T06:13:02;4.50;1.00
5930;DHT22;2990;48.746;9.236;2023-01-04T06:15:28;4.60;1.00
5930;DHT22;2990;48.746;9.236;2023-01-04T06:17:53;4.60;1.00
5930;DHT22;2990;48.746;9.236;2023-01-04T06:20:24;4.60;1.00
5930;DHT22;2990;48.746;9.236;2023-01-04T06:22:50;4.60;1.00
5930;DHT22;2990;48.746;9.236;2023-01-04T06:25:15;4.50;1.00
5930;DHT22;2990;48.746;9.236;2023-01-04T06:27:41;4.60;1.00
5930;DHT22;2990;48.746;9.236;2023-01-04T06:30:09;4.70;1.00
5930;DHT22;2990;48.746;9.236;2023-01-04T06:32:35;4.70;1.00
5930;DHT22;2990;48.746;9.236;2023-01-04T06:35:08;4.70;1.00
5930;DHT22;2990;48.746;9.236;2023-01-04T06:37:34;4.60;1.00
5930;DHT22;2990;48.746;9.236;2023-01-04T06:40:00;4.70;1.00
5930;DHT22;2990;48.746;9.236;2023-01-04T06:42:25;4.70;1.00
5930;DHT22;2990;48.746;9.236;2023-01-04T06:45:13;4.70;1.00
5930;DHT22;2990;48.746;9.236;2023-01-04T06:47:40;4.80;1.00
5930;DHT22;2990;48.746;9.236;2023-01-04T06:50:09;4.80;1.00
5930;DHT22;2990;48.746;9.236;2023-01-04T06:52:38;4.80;1.00
5930;DHT22;2990;48.746;9.236;2023-01-04T06:55:05;4.80;1.00
5930;DHT22;2990;48.746;9.236;2023-01-04T06:57:34;4.80;1.00
5930;DHT22;2990;48.746;9.236;2023-01-04T06:59:59;4.80;1.00
5930;DHT22;2990;48.746;9.236;2023-01-04T07:02:25;4.80;1.00
5930;DHT22;2990;48.746;9.236;2023-01-04T07:04:51;4.80;1.00
5930;DHT22;2990;48.746;9.236;2023-01-04T07:07:17;5.00;1.00
5930;DHT22;2990;48.746;9.236;2023-01-04T07:09:42;4.90;1.00
5930;DHT22;2990;48.746;9.236;2023-01-04T07:12:14;4.90;99.90
5930;DHT22;2990;48.746;9.236;2023-01-04T07:14:39;4.90;99.90
5930;DHT22;2990;48.746;9.236;2023-01-04T07:17:05;4.90;99.90
5930;DHT22;2990;48.746;9.236;2023-01-04T07:19:30;4.90;99.90
5930;DHT22;2990;48.746;9.236;2023-01-04T07:21:58;5.00;99.90
5930;DHT22;2990;48.746;9.236;2023-01-04T07:24:24;5.00;99.90
5930;DHT22;2990;48.746;9.236;2023-01-04T07:26:53;5.00;99.90
5930;DHT22;2990;48.746;9.236;2023-01-04T07:29:22;5.00;99.90
5930;DHT22;2990;48.746;9.236;2023-01-04T07:31:50;5.00;99.90
5930;DHT22;2990;48.746;9.236;2023-01-04T07:34:18;5.00;99.90
5930;DHT22;2990;48.746;9.236;2023-01-04T07:36:44;5.10;99.90
5930;DHT22;2990;48.746;9.236;2023-01-04T07:39:14;5.10;99.90
5930;DHT22;2990;48.746;9.236;2023-01-04T07:41:40;5.10;1.00
5930;DHT22;2990;48.746;9.236;2023-01-04T07:44:21;5.10;1.00
5930;DHT22;2990;48.746;9.236;2023-01-04T07:46:55;5.00;1.00
5930;DHT22;2990;48.746;9.236;2023-01-04T07:49:23;5.00;1.00
5930;DHT22;2990;48.746;9.236;2023-01-04T07:51:49;4.90;1.00
5930;DHT22;2990;48.746;9.236;2023-01-04T07:54:16;5.00;1.00
5930;DHT22;2990;48.746;9.236;2023-01-04T07:56:43;5.00;1.00
5930;DHT22;2990;48.746;9.236;2023-01-04T07:59:10;4.90;1.00
5930;DHT22;2990;48.746;9.236;2023-01-04T08:01:36;4.90;1.00
5930;DHT22;2990;48.746;9.236;2023-01-04T08:04:05;4.90;1.00
5930;DHT22;2990;48.746;9.236;2023-01-04T08:06:31;4.90;1.00
5930;DHT22;2990;48.746;9.236;2023-01-04T08:08:58;4.90;1.00
5930;DHT22;2990;48.746;9.236;2023-01-04T08:11:24;4.80;1.00
5930;DHT22;2990;48.746;9.236;2023-01-04T08:13:50;4.80;1.00
5930;DHT22;2990;48.746;9.236;2023-01-04T08:16:29;4.90;1.00
5930;DHT22;2990;48.746;9.236;2023-01-04T08:18:57;4.90;1.00
5930;DHT22;2990;48.746;9.236;2023-01-04T08:21:24;4.90;1.00
5930;DHT22;2990;48.746;9.236;2023-01-04T08:23:50;4.90;1.00
5930;DHT22;2990;48.746;9.236;2023-01-04T08:26:17;4.90;1.00
5930;DHT22;2990;48.746;9.236;2023-01-04T08:28:44;4.90;1.00
5930;DHT22;2990;48.746;9.236;2023-01-04T08:31:13;5.00;1.00
5930;DHT22;2990;48.746;9.236;2023-01-04T08:33:40;5.00;1.00
5930;DHT22;2990;48.746;9.236;2023-01-04T08:38:32;5.00;16.80
5930;DHT22;2990;48.746;9.236;2023-01-04T08:40:57;5.00;1.00
5930;DHT22;2990;48.746;9.236;2023-01-04T08:43:23;5.10;1.00
5930;DHT22;2990;48.746;9.236;2023-01-04T08:45:48;5.10;1.00
5930;DHT22;2990;48.746;9.236;2023-01-04T08:48:14;5.10;1.00
5930;DHT22;2990;48.746;9.236;2023-01-04T08:50:39;5.20;1.00
5930;DHT22;2990;48.746;9.236;2023-01-04T08:53:06;5.20;1.00
5930;DHT22;2990;48.746;9.236;2023-01-04T08:55:31;5.20;1.00
5930;DHT22;2990;48.746;9.236;2023-01-04T08:57:58;5.20;1.00
5930;DHT22;2990;48.746;9.236;2023-01-04T09:00:24;5.20;1.00
5930;DHT22;2990;48.746;9.236;2023-01-04T09:02:50;5.30;1.00
5930;DHT22;2990;48.746;9.236;2023-01-04T09:05:15;5.30;1.00
5930;DHT22;2990;48.746;9.236;2023-01-04T09:07:41;5.30;1.00
5930;DHT22;2990;48.746;9.236;2023-01-04T09:10:07;5.40;1.00
5930;DHT22;2990;48.746;9.236;2023-01-04T09:12:32;5.50;1.00
5930;DHT22;2990;48.746;9.236;2023-01-04T09:14:58;5.50;1.00
5930;DHT22;2990;48.746;9.236;2023-01-04T09:17:23;5.60;99.90
5930;DHT22;2990;48.746;9.236;2023-01-04T09:19:49;5.60;99.90
5930;DHT22;2990;48.746;9.236;2023-01-04T09:22:15;5.70;99.90
5930;DHT22;2990;48.746;9.236;2023-01-04T09:24:40;5.70;86.80
5930;DHT22;2990;48.746;9.236;2023-01-04T09:27:06;5.70;99.90
5930;DHT22;2990;48.746;9.236;2023-01-04T09:29:31;5.80;1.00
5930;DHT22;2990;48.746;9.236;2023-01-04T09:31:57;5.80;4.40
5930;DHT22;2990;48.746;9.236;2023-01-04T09:34:22;5.80;1.00
5930;DHT22;2990;48.746;9.236;2023-01-04T09:36:48;5.90;1.00
5930;DHT22;2990;48.746;9.236;2023-01-04T09:39:15;5.90;1.00
5930;DHT22;2990;48.746;9.236;2023-01-04T09:41:52;6.00;1.00
5930;DHT22;2990;48.746;9.236;2023-01-04T09:45:03;6.10;23.80
5930;DHT22;2990;48.746;9.236;2023-01-04T09:47:58;6.10;1.00
5930;DHT22;2990;48.746;9.236;2023-01-04T09:50:44;6.20;1.00
5930;DHT22;2990;48.746;9.236;2023-01-04T09:53:26;6.20;99.90
5930;DHT22;2990;48.746;9.236;2023-01-04T09:55:56;6.30;99.90
5930;DHT22;2990;48.746;9.236;2023-01-04T09:58:28;6.30;1.00
5930;DHT22;2990;48.746;9.236;2023-01-04T10:05:56;6.40;62.70
5930;DHT22;2990;48.746;9.236;2023-01-04T10:08:22;6.40;1.00
5930;DHT22;2990;48.746;9.236;2023-01-04T10:22:11;6.60;99.90
5930;DHT22;2990;48.746;9.236;2023-01-04T10:27:23;6.60;1.00
5930;DHT22;2990;48.746;9.236;2023-01-04T10:34:44;6.70;1.00
5930;DHT22;2990;48.746;9.236;2023-01-04T10:37:23;6.70;99.90
5930;DHT22;2990;48.746;9.236;2023-01-04T10:39:53;6.80;1.00
5930;DHT22;2990;48.746;9.236;2023-01-04T10:52:55;6.90;1.00
5930;DHT22;2990;48.746;9.236;2023-01-04T10:55:39;7.00;1.00
5930;DHT22;2990;48.746;9.236;2023-01-04T10:58:18;7.00;1.00
5930;DHT22;2990;48.746;9.236;2023-01-04T11:00:56;7.10;1.00
5930;DHT22;2990;48.746;9.236;2023-01-04T11:03:54;7.10;1.00
5930;DHT22;2990;48.746;9.236;2023-01-04T11:06:24;7.20;1.00
5930;DHT22;2990;48.746;9.236;2023-01-04T11:11:35;7.20;1.00
5930;DHT22;2990;48.746;9.236;2023-01-04T11:14:02;7.30;1.00
5930;DHT22;2990;48.746;9.236;2023-01-04T11:16:28;7.30;1.00
5930;DHT22;2990;48.746;9.236;2023-01-04T11:18:54;7.30;1.00
5930;DHT22;2990;48.746;9.236;2023-01-04T11:21:25;7.40;1.00
5930;DHT22;2990;48.746;9.236;2023-01-04T11:23:55;7.40;1.00
5930;DHT22;2990;48.746;9.236;2023-01-04T11:26:25;7.50;99.90
5930;DHT22;2990;48.746;9.236;2023-01-04T11:28:57;7.60;99.90
5930;DHT22;2990;48.746;9.236;2023-01-04T11:31:44;7.60;97.70
5930;DHT22;2990;48.746;9.236;2023-01-04T11:34:11;7.50;99.90
5930;DHT22;2990;48.746;9.236;2023-01-04T11:36:42;7.60;88.40
5930;DHT22;2990;48.746;9.236;2023-01-04T11:39:23;7.60;12.30
5930;DHT22;2990;48.746;9.236;2023-01-04T11:41:55;7.60;22.50
5930;DHT22;2990;48.746;9.236;2023-01-04T11:44:23;7.60;99.90
5930;DHT22;2990;48.746;9.236;2023-01-04T11:47:14;7.60;99.90
5930;DHT22;2990;48.746;9.236;2023-01-04T11:49:41;7.70;99.90
5930;DHT22;2990;48.746;9.236;2023-01-04T11:52:30;7.70;1.00
5930;DHT22;2990;48.746;9.236;2023-01-04T11:57:40;7.70;99.90
5930;DHT22;2990;48.746;9.236;2023-01-04T12:00:15;7.70;99.90
5930;DHT22;2990;48.746;9.236;2023-01-04T12:02:41;7.80;99.90
5930;DHT22;2990;48.746;9.236;2023-01-04T12:05:20;7.80;99.90
5930;DHT22;2990;48.746;9.236;2023-01-04T12:07:46;7.80;99.90
5930;DHT22;2990;48.746;9.236;2023-01-04T12:10:20;7.80;99.90
5930;DHT22;2990;48.746;9.236;2023-01-04T12:12:46;7.90;99.90
5930;DHT22;2990;48.746;9.236;2023-01-04T12:15:17;7.90;99.90
5930;DHT22;2990;48.746;9.236;2023-01-04T12:18:05;7.90;99.90
5930;DHT22;2990;48.746;9.236;2023-01-04T12:20:32;7.90;1.00
5930;DHT22;2990;48.746;9.236;2023-01-04T12:22:57;7.90;1.00
5930;DHT22;2990;48.746;9.236;2023-01-04T12:25:39;7.90;1.00
5930;DHT22;2990;48.746;9.236;2023-01-04T12:28:30;8.00;1.00
5930;DHT22;2990;48.746;9.236;2023-01-04T12:33:53;8.00;99.90
5930;DHT22;2990;48.746;9.236;2023-01-04T12:36:52;8.00;99.90
5930;DHT22;2990;48.746;9.236;2023-01-04T12:50:14;8.20;1.00
5930;DHT22;2990;48.746;9.236;2023-01-04T12:52:43;8.30;9.80
5930;DHT22;2990;48.746;9.236;2023-01-04T12:58:07;8.40;1.00
5930;DHT22;2990;48.746;9.236;2023-01-04T13:05:58;8.50;1.00
5930;DHT22;2990;48.746;9.236;2023-01-04T13:08:25;8.60;1.00
5930;DHT22;2990;48.746;9.236;2023-01-04T13:10:54;8.60;1.00
5930;DHT22;2990;48.746;9.236;2023-01-04T13:13:48;8.70;1.00
5930;DHT22;2990;48.746;9.236;2023-01-04T13:16:24;8.70;1.00
5930;DHT22;2990;48.746;9.236;2023-01-04T13:18:53;8.70;1.00
5930;DHT22;2990;48.746;9.236;2023-01-04T13:21:46;8.80;1.00
5930;DHT22;2990;48.746;9.236;2023-01-04T13:24:21;8.80;1.00
5930;DHT22;2990;48.746;9.236;2023-01-04T13:26:49;8.80;1.00
5930;DHT22;2990;48.746;9.236;2023-01-04T13:29:24;8.80;1.00
5930;DHT22;2990;48.746;9.236;2023-01-04T13:34:31;8.90;1.00
5930;DHT22;2990;48.746;9.236;2023-01-04T13:42:41;8.90;99.90
5930;DHT22;2990;48.746;9.236;2023-01-04T13:45:29;8.90;99.90
5930;DHT22;2990;48.746;9.236;2023-01-04T13:48:00;8.90;1.00
5930;DHT22;2990;48.746;9.236;2023-01-04T13:50:37;9.00;1.00
5930;DHT22;2990;48.746;9.236;2023-01-04T13:53:04;9.00;1.00
5930;DHT22;2990;48.746;9.236;2023-01-04T13:55:32;9.00;99.90
5930;DHT22;2990;48.746;9.236;2023-01-04T13:58:01;9.00;99.90
5930;DHT22;2990;48.746;9.236;2023-01-04T14:00:33;9.10;99.90
5930;DHT22;2990;48.746;9.236;2023-01-04T14:05:34;9.10;1.00
5930;DHT22;2990;48.746;9.236;2023-01-04T14:08:01;9.10;1.00
5930;DHT22;2990;48.746;9.236;2023-01-04T14:10:27;9.10;99.90
5930;DHT22;2990;48.746;9.236;2023-01-04T14:12:53;9.10;99.90
5930;DHT22;2990;48.746;9.236;2023-01-04T14:15:24;9.20;99.90
5930;DHT22;2990;48.746;9.236;2023-01-04T14:17:51;9.10;99.90
5930;DHT22;2990;48.746;9.236;2023-01-04T14:28:24;9.20;99.90
5930;DHT22;2990;48.746;9.236;2023-01-04T14:33:21;9.20;99.90
5930;DHT22;2990;48.746;9.236;2023-01-04T14:41:41;9.20;99.90
5930;DHT22;2990;48.746;9.236;2023-01-04T14:44:13;9.20;1.00
5930;DHT22;2990;48.746;9.236;2023-01-04T14:46:41;9.20;1.00
5930;DHT22;2990;48.746;9.236;2023-01-04T14:49:08;9.20;1.00
5930;DHT22;2990;48.746;9.236;2023-01-04T14:51:45;9.20;1.00
5930;DHT22;2990;48.746;9.236;2023-01-04T14:54:12;9.10;1.00
5930;DHT22;2990;48.746;9.236;2023-01-04T14:56:39;9.20;1.00
5930;DHT22;2990;48.746;9.236;2023-01-04T14:59:05;9.10;1.00
5930;DHT22;2990;48.746;9.236;2023-01-04T15:01:30;9.20;1.00
5930;DHT22;2990;48.746;9.236;2023-01-04T15:03:56;9.20;1.00
5930;DHT22;2990;48.746;9.236;2023-01-04T15:06:22;9.20;1.00
5930;DHT22;2990;48.746;9.236;2023-01-04T15:08:47;9.10;1.00
5930;DHT22;2990;48.746;9.236;2023-01-04T15:11:13;9.10;99.90
5930;DHT22;2990;48.746;9.236;2023-01-04T15:13:40;9.10;99.90
5930;DHT22;2990;48.746;9.236;2023-01-04T15:16:07;9.10;99.90
5930;DHT22;2990;48.746;9.236;2023-01-04T15:18:34;9.20;99.90
5930;DHT22;2990;48.746;9.236;2023-01-04T15:21:00;9.10;99.90
5930;DHT22;2990;48.746;9.236;2023-01-04T15:23:26;9.10;1.00
5930;DHT22;2990;48.746;9.236;2023-01-04T15:25:51;9.00;1.00
5930;DHT22;2990;48.746;9.236;2023-01-04T15:28:17;9.00;1.00
5930;DHT22;2990;48.746;9.236;2023-01-04T15:30:45;8.90;99.90
5930;DHT22;2990;48.746;9.236;2023-01-04T15:33:11;8.90;1.00
5930;DHT22;2990;48.746;9.236;2023-01-04T15:35:36;8.90;1.00
5930;DHT22;2990;48.746;9.236;2023-01-04T15:38:02;8.90;1.00
5930;DHT22;2990;48.746;9.236;2023-01-04T15:40:28;8.90;99.90
5930;DHT22;2990;48.746;9.236;2023-01-04T15:42:53;8.90;1.00
5930;DHT22;2990;48.746;9.236;2023-01-04T15:45:38;8.80;1.00
5930;DHT22;2990;48.746;9.236;2023-01-04T15:48:06;8.80;99.90
5930;DHT22;2990;48.746;9.236;2023-01-04T15:50:36;8.80;1.00
5930;DHT22;2990;48.746;9.236;2023-01-04T15:53:03;8.80;1.00
5930;DHT22;2990;48.746;9.236;2023-01-04T15:55:33;8.80;72.60
5930;DHT22;2990;48.746;9.236;2023-01-04T15:57:59;8.80;99.90
5930;DHT22;2990;48.746;9.236;2023-01-04T16:00:25;8.80;1.00
5930;DHT22;2990;48.746;9.236;2023-01-04T16:02:51;8.80;1.00
5930;DHT22;2990;48.746;9.236;2023-01-04T16:05:17;8.90;1.00
5930;DHT22;2990;48.746;9.236;2023-01-04T16:07:45;8.90;1.00
5930;DHT22;2990;48.746;9.236;2023-01-04T16:10:10;8.90;1.00
5930;DHT22;2990;48.746;9.236;2023-01-04T16:12:36;8.90;1.00
5930;DHT22;2990;48.746;9.236;2023-01-04T16:15:11;8.90;1.00
5930;DHT22;2990;48.746;9.236;2023-01-04T16:17:37;8.90;99.90
5930;DHT22;2990;48.746;9.236;2023-01-04T16:20:04;9.00;1.00
5930;DHT22;2990;48.746;9.236;2023-01-04T16:22:30;9.00;1.00
5930;DHT22;2990;48.746;9.236;2023-01-04T16:24:55;9.00;99.90
5930;DHT22;2990;48.746;9.236;2023-01-04T16:27:21;9.00;1.00
5930;DHT22;2990;48.746;9.236;2023-01-04T16:29:48;9.00;1.00
5930;DHT22;2990;48.746;9.236;2023-01-04T16:32:15;9.00;99.90
5930;DHT22;2990;48.746;9.236;2023-01-04T16:34:40;9.00;16.50
5930;DHT22;2990;48.746;9.236;2023-01-04T16:37:06;9.10;1.00
5930;DHT22;2990;48.746;9.236;2023-01-04T16:39:32;9.10;1.00
5930;DHT22;2990;48.746;9.236;2023-01-04T16:42:06;9.10;1.00
5930;DHT22;2990;48.746;9.236;2023-01-04T16:44:37;9.20;99.90
5930;DHT22;2990;48.746;9.236;2023-01-04T16:47:03;9.10;99.90
5930;DHT22;2990;48.746;9.236;2023-01-04T16:49:34;9.20;87.20
5930;DHT22;2990;48.746;9.236;2023-01-04T16:52:00;9.20;1.00
5930;DHT22;2990;48.746;9.236;2023-01-04T16:57:43;9.20;1.00
5930;DHT22;2990;48.746;9.236;2023-01-04T17:00:15;9.30;37.00
5930;DHT22;2990;48.746;9.236;2023-01-04T17:02:48;9.30;35.00
5930;DHT22;2990;48.746;9.236;2023-01-04T17:05:31;9.30;1.00
5930;DHT22;2990;48.746;9.236;2023-01-04T17:08:17;9.30;1.00
5930;DHT22;2990;48.746;9.236;2023-01-04T17:10:45;9.30;1.00
5930;DHT22;2990;48.746;9.236;2023-01-04T17:13:33;9.40;1.00
5930;DHT22;2990;48.746;9.236;2023-01-04T17:16:43;9.30;1.00
5930;DHT22;2990;48.746;9.236;2023-01-04T17:23:22;9.20;1.00
5930;DHT22;2990;48.746;9.236;2023-01-04T17:26:35;9.40;99.90
5930;DHT22;2990;48.746;9.236;2023-01-04T17:36:13;9.40;99.90
5930;DHT22;2990;48.746;9.236;2023-01-04T17:38:52;9.50;99.90
5930;DHT22;2990;48.746;9.236;2023-01-04T18:03:37;9.50;99.90
5930;DHT22;2990;48.746;9.236;2023-01-04T18:10:05;9.60;1.00
5930;DHT22;2990;48.746;9.236;2023-01-04T18:12:39;9.50;1.00
5930;DHT22;2990;48.746;9.236;2023-01-04T18:18:40;9.50;1.00
5930;DHT22;2990;48.746;9.236;2023-01-04T18:21:23;9.50;99.90
5930;DHT22;2990;48.746;9.236;2023-01-04T18:24:28;9.50;99.90
5930;DHT22;2990;48.746;9.236;2023-01-04T18:33:33;9.50;99.90
5930;DHT22;2990;48.746;9.236;2023-01-04T18:36:35;9.50;99.90
5930;DHT22;2990;48.746;9.236;2023-01-04T18:56:56;9.40;1.00
5930;DHT22;2990;48.746;9.236;2023-01-04T19:03:32;9.40;99.90
5930;DHT22;2990;48.746;9.236;2023-01-04T19:06:46;9.40;1.00
5930;DHT22;2990;48.746;9.236;2023-01-04T19:09:17;9.40;1.00
5930;DHT22;2990;48.746;9.236;2023-01-04T19:11:45;9.40;97.30
5930;DHT22;2990;48.746;9.236;2023-01-04T19:14:12;9.40;99.90
5930;DHT22;2990;48.746;9.236;2023-01-04T19:16:37;9.40;99.90
5930;DHT22;2990;48.746;9.236;2023-01-04T19:19:03;9.40;99.90
5930;DHT22;2990;48.746;9.236;2023-01-04T19:21:28;9.40;1.00
5930;DHT22;2990;48.746;9.236;2023-01-04T19:23:57;9.40;1.00
5930;DHT22;2990;48.746;9.236;2023-01-04T19:26:30;9.50;1.00
5930;DHT22;2990;48.746;9.236;2023-01-04T19:28:56;9.50;1.00
5930;DHT22;2990;48.746;9.236;2023-01-04T19:31:21;9.40;1.00
5930;DHT22;2990;48.746;9.236;2023-01-04T19:33:47;9.40;1.00
5930;DHT22;2990;48.746;9.236;2023-01-04T19:36:15;9.40;1.00
5930;DHT22;2990;48.746;9.236;2023-01-04T19:38:48;9.40;1.00
5930;DHT22;2990;48.746;9.236;2023-01-04T19:41:16;9.40;1.00
5930;DHT22;2990;48.746;9.236;2023-01-04T19:43:44;9.40;1.00
5930;DHT22;2990;48.746;9.236;2023-01-04T19:46:10;9.40;1.00
5930;DHT22;2990;48.746;9.236;2023-01-04T19:48:36;9.40;1.00
5930;DHT22;2990;48.746;9.236;2023-01-04T19:51:07;9.40;10.30
5930;DHT22;2990;48.746;9.236;2023-01-04T19:53:36;9.40;99.90
5930;DHT22;2990;48.746;9.236;2023-01-04T19:56:15;9.40;99.90
5930;DHT22;2990;48.746;9.236;2023-01-04T19:58:41;9.40;99.90